sensor_id;sensor_type;location;lat;lon;timestamp;P1;durP1;ratioP1;P2;durP2;ratioP2
54935;SDS011;40838;50.676;7.838;2023-02-28T00:01:38;3.58;;;1.73;;
54935;SDS011;40838;50.676;7.838;2023-02-28T00:04:06;2.65;;;1.52;;
54935;SDS011;40838;50.676;7.838;2023-02-28T00:06:34;3.25;;;1.70;;
54935;SDS011;40838;50.676;7.838;2023-02-28T00:09:03;8.30;;;1.80;;
54935;SDS011;40838;50.676;7.838;2023-02-28T00:11:30;7.90;;;1.70;;
54935;SDS011;40838;50.676;7.838;2023-02-28T00:13:57;4.57;;;1.67;;
54935;SDS011;40838;50.676;7.838;2023-02-28T00:16:35;2.30;;;1.50;;
54935;SDS011;40838;50.676;7.838;2023-02-28T00:19:03;3.13;;;1.63;;
54935;SDS011;40838;50.676;7.838;2023-02-28T00:21:30;2.50;;;1.52;;
54935;SDS011;40838;50.676;7.838;2023-02-28T00:23:57;3.03;;;2.03;;
54935;SDS011;40838;50.676;7.838;2023-02-28T00:26:32;4.03;;;1.77;;
54935;SDS011;40838;50.676;7.838;2023-02-28T00:29:08;2.55;;;1.80;;
54935;SDS011;40838;50.676;7.838;2023-02-28T00:31:35;2.35;;;1.35;;
54935;SDS011;40838;50.676;7.838;2023-02-28T00:34:04;4.28;;;1.70;;
54935;SDS011;40838;50.676;7.838;2023-02-28T00:36:30;4.25;;;1.90;;
54935;SDS011;40838;50.676;7.838;2023-02-28T00:38:57;3.13;;;1.85;;
54935;SDS011;40838;50.676;7.838;2023-02-28T00:41:35;2.28;;;1.65;;
54935;SDS011;40838;50.676;7.838;2023-02-28T00:44:03;5.93;;;2.20;;
54935;SDS011;40838;50.676;7.838;2023-02-28T00:46:31;2.15;;;1.60;;
54935;SDS011;40838;50.676;7.838;2023-02-28T00:48:57;3.08;;;1.60;;
54935;SDS011;40838;50.676;7.838;2023-02-28T00:51:34;2.38;;;1.63;;
54935;SDS011;40838;50.676;7.838;2023-02-28T00:54:03;4.18;;;1.65;;
54935;SDS011;40838;50.676;7.838;2023-02-28T00:56:33;5.07;;;1.55;;
54935;SDS011;40838;50.676;7.838;2023-02-28T00:59:03;3.63;;;1.63;;
54935;SDS011;40838;50.676;7.838;2023-02-28T01:01:32;4.10;;;1.65;;
54935;SDS011;40838;50.676;7.838;2023-02-28T01:03:59;2.58;;;2.05;;
54935;SDS011;40838;50.676;7.838;2023-02-28T01:06:34;4.68;;;1.98;;
54935;SDS011;40838;50.676;7.838;2023-02-28T01:09:03;2.17;;;1.70;;
54935;SDS011;40838;50.676;7.838;2023-02-28T01:11:32;5.03;;;1.70;;
54935;SDS011;40838;50.676;7.838;2023-02-28T01:14:04;3.03;;;1.83;;
54935;SDS011;40838;50.676;7.838;2023-02-28T01:16:33;3.88;;;2.20;;
54935;SDS011;40838;50.676;7.838;2023-02-28T01:19:04;5.63;;;1.80;;
54935;SDS011;40838;50.676;7.838;2023-02-28T01:21:31;2.78;;;1.80;;
54935;SDS011;40838;50.676;7.838;2023-02-28T01:24:00;2.50;;;1.70;;
54935;SDS011;40838;50.676;7.838;2023-02-28T01:26:32;2.97;;;1.63;;
54935;SDS011;40838;50.676;7.838;2023-02-28T01:29:04;2.78;;;1.80;;
54935;SDS011;40838;50.676;7.838;2023-02-28T01:31:32;4.90;;;2.30;;
54935;SDS011;40838;50.676;7.838;2023-02-28T01:33:59;4.03;;;1.55;;
54935;SDS011;40838;50.676;7.838;2023-02-28T01:36:29;1.73;;;1.63;;
54935;SDS011;40838;50.676;7.838;2023-02-28T01:38:57;2.15;;;1.50;;
54935;SDS011;40838;50.676;7.838;2023-02-28T01:41:26;5.57;;;1.70;;
54935;SDS011;40838;50.676;7.838;2023-02-28T01:43:57;3.40;;;1.77;;
54935;SDS011;40838;50.676;7.838;2023-02-28T01:46:33;1.70;;;1.50;;
54935;SDS011;40838;50.676;7.838;2023-02-28T01:49:05;3.97;;;1.55;;
54935;SDS011;40838;50.676;7.838;2023-02-28T01:51:37;4.93;;;1.98;;
54935;SDS011;40838;50.676;7.838;2023-02-28T01:54:16;2.35;;;1.30;;
54935;SDS011;40838;50.676;7.838;2023-02-28T01:56:47;5.72;;;1.75;;
54935;SDS011;40838;50.676;7.838;2023-02-28T01:59:21;2.30;;;1.55;;
54935;SDS011;40838;50.676;7.838;2023-02-28T02:01:52;2.63;;;1.83;;
54935;SDS011;40838;50.676;7.838;2023-02-28T02:04:20;3.17;;;1.83;;
54935;SDS011;40838;50.676;7.838;2023-02-28T02:06:49;5.85;;;2.08;;
54935;SDS011;40838;50.676;7.838;2023-02-28T02:09:16;3.10;;;1.75;;
54935;SDS011;40838;50.676;7.838;2023-02-28T02:11:43;7.05;;;2.50;;
54935;SDS011;40838;50.676;7.838;2023-02-28T02:14:28;2.08;;;1.75;;
54935;SDS011;40838;50.676;7.838;2023-02-28T02:17:10;4.53;;;1.60;;
54935;SDS011;40838;50.676;7.838;2023-02-28T02:19:51;2.45;;;1.73;;
54935;SDS011;40838;50.676;7.838;2023-02-28T02:22:54;3.05;;;1.92;;
54935;SDS011;40838;50.676;7.838;2023-02-28T02:25:42;4.22;;;2.10;;
54935;SDS011;40838;50.676;7.838;2023-02-28T02:34:18;6.38;;;1.92;;
54935;SDS011;40838;50.676;7.838;2023-02-28T02:37:07;3.78;;;2.00;;
54935;SDS011;40838;50.676;7.838;2023-02-28T02:39:44;3.63;;;2.15;;
54935;SDS011;40838;50.676;7.838;2023-02-28T02:42:20;4.10;;;1.83;;
54935;SDS011;40838;50.676;7.838;2023-02-28T02:44:53;5.45;;;2.45;;
54935;SDS011;40838;50.676;7.838;2023-02-28T02:47:26;3.35;;;2.00;;
54935;SDS011;40838;50.676;7.838;2023-02-28T02:49:57;5.07;;;2.03;;
54935;SDS011;40838;50.676;7.838;2023-02-28T02:52:34;3.20;;;1.95;;
54935;SDS011;40838;50.676;7.838;2023-02-28T02:55:07;3.92;;;2.13;;
54935;SDS011;40838;50.676;7.838;2023-02-28T02:57:40;4.70;;;2.58;;
54935;SDS011;40838;50.676;7.838;2023-02-28T03:00:13;7.15;;;2.50;;
54935;SDS011;40838;50.676;7.838;2023-02-28T03:02:45;9.25;;;2.40;;
54935;SDS011;40838;50.676;7.838;2023-02-28T03:05:19;6.28;;;2.38;;
54935;SDS011;40838;50.676;7.838;2023-02-28T03:07:48;5.13;;;2.45;;
54935;SDS011;40838;50.676;7.838;2023-02-28T03:10:32;3.45;;;2.13;;
54935;SDS011;40838;50.676;7.838;2023-02-28T03:19:11;9.23;;;2.35;;
54935;SDS011;40838;50.676;7.838;2023-02-28T03:21:55;2.95;;;1.88;;
54935;SDS011;40838;50.676;7.838;2023-02-28T03:24:35;5.00;;;2.15;;
54935;SDS011;40838;50.676;7.838;2023-02-28T03:27:10;4.05;;;2.30;;
54935;SDS011;40838;50.676;7.838;2023-02-28T03:29:43;7.07;;;2.90;;
54935;SDS011;40838;50.676;7.838;2023-02-28T03:32:17;4.40;;;2.50;;
54935;SDS011;40838;50.676;7.838;2023-02-28T03:34:48;4.28;;;2.67;;
54935;SDS011;40838;50.676;7.838;2023-02-28T03:37:21;3.10;;;2.30;;
54935;SDS011;40838;50.676;7.838;2023-02-28T03:39:53;7.03;;;3.30;;
54935;SDS011;40838;50.676;7.838;2023-02-28T03:42:23;5.28;;;2.50;;
54935;SDS011;40838;50.676;7.838;2023-02-28T03:44:54;6.25;;;2.83;;
54935;SDS011;40838;50.676;7.838;2023-02-28T03:47:27;7.25;;;2.70;;
54935;SDS011;40838;50.676;7.838;2023-02-28T03:50:01;4.82;;;2.75;;
54935;SDS011;40838;50.676;7.838;2023-02-28T03:52:37;5.35;;;3.22;;
54935;SDS011;40838;50.676;7.838;2023-02-28T03:55:12;3.95;;;2.30;;
54935;SDS011;40838;50.676;7.838;2023-02-28T03:57:43;5.43;;;2.55;;
54935;SDS011;40838;50.676;7.838;2023-02-28T04:00:25;4.25;;;2.35;;
54935;SDS011;40838;50.676;7.838;2023-02-28T04:05:23;7.22;;;2.70;;
54935;SDS011;40838;50.676;7.838;2023-02-28T04:07:52;3.67;;;2.45;;
54935;SDS011;40838;50.676;7.838;2023-02-28T04:10:19;5.18;;;3.03;;
54935;SDS011;40838;50.676;7.838;2023-02-28T04:12:46;5.32;;;3.17;;
54935;SDS011;40838;50.676;7.838;2023-02-28T04:15:13;6.50;;;2.75;;
54935;SDS011;40838;50.676;7.838;2023-02-28T04:17:42;6.85;;;3.00;;
54935;SDS011;40838;50.676;7.838;2023-02-28T04:20:09;4.32;;;2.50;;
54935;SDS011;40838;50.676;7.838;2023-02-28T04:22:37;4.10;;;2.90;;
54935;SDS011;40838;50.676;7.838;2023-02-28T04:25:06;9.98;;;3.00;;
54935;SDS011;40838;50.676;7.838;2023-02-28T04:27:35;5.18;;;2.63;;
54935;SDS011;40838;50.676;7.838;2023-02-28T04:30:06;5.22;;;3.05;;
54935;SDS011;40838;50.676;7.838;2023-02-28T04:32:35;3.60;;;2.40;;
54935;SDS011;40838;50.676;7.838;2023-02-28T04:35:02;4.50;;;2.72;;
54935;SDS011;40838;50.676;7.838;2023-02-28T04:37:29;3.45;;;2.60;;
54935;SDS011;40838;50.676;7.838;2023-02-28T04:40:00;5.22;;;3.38;;
54935;SDS011;40838;50.676;7.838;2023-02-28T04:42:29;3.47;;;2.47;;
54935;SDS011;40838;50.676;7.838;2023-02-28T04:45:02;5.32;;;2.80;;
54935;SDS011;40838;50.676;7.838;2023-02-28T04:47:31;10.43;;;2.95;;
54935;SDS011;40838;50.676;7.838;2023-02-28T04:49:58;4.15;;;2.58;;
54935;SDS011;40838;50.676;7.838;2023-02-28T04:52:27;3.35;;;2.42;;
54935;SDS011;40838;50.676;7.838;2023-02-28T04:54:54;7.20;;;2.70;;
54935;SDS011;40838;50.676;7.838;2023-02-28T04:57:21;7.20;;;2.63;;
54935;SDS011;40838;50.676;7.838;2023-02-28T04:59:51;6.18;;;2.33;;
54935;SDS011;40838;50.676;7.838;2023-02-28T05:02:18;4.15;;;2.63;;
54935;SDS011;40838;50.676;7.838;2023-02-28T05:04:46;3.15;;;2.22;;
54935;SDS011;40838;50.676;7.838;2023-02-28T05:07:15;5.82;;;2.70;;
54935;SDS011;40838;50.676;7.838;2023-02-28T05:09:42;7.55;;;2.42;;
54935;SDS011;40838;50.676;7.838;2023-02-28T05:12:10;4.75;;;2.67;;
54935;SDS011;40838;50.676;7.838;2023-02-28T05:14:39;6.05;;;2.78;;
54935;SDS011;40838;50.676;7.838;2023-02-28T05:17:09;5.65;;;2.83;;
54935;SDS011;40838;50.676;7.838;2023-02-28T05:19:37;7.45;;;2.60;;
54935;SDS011;40838;50.676;7.838;2023-02-28T05:22:11;3.50;;;2.88;;
54935;SDS011;40838;50.676;7.838;2023-02-28T05:24:40;6.85;;;2.72;;
54935;SDS011;40838;50.676;7.838;2023-02-28T05:27:09;3.40;;;2.17;;
54935;SDS011;40838;50.676;7.838;2023-02-28T05:29:37;6.00;;;2.40;;
54935;SDS011;40838;50.676;7.838;2023-02-28T05:32:09;4.07;;;2.60;;
54935;SDS011;40838;50.676;7.838;2023-02-28T05:34:37;5.32;;;2.95;;
54935;SDS011;40838;50.676;7.838;2023-02-28T05:37:04;4.10;;;3.00;;
54935;SDS011;40838;50.676;7.838;2023-02-28T05:39:33;5.55;;;2.78;;
54935;SDS011;40838;50.676;7.838;2023-02-28T05:42:00;6.72;;;3.28;;
54935;SDS011;40838;50.676;7.838;2023-02-28T05:44:28;5.93;;;3.60;;
54935;SDS011;40838;50.676;7.838;2023-02-28T05:46:55;5.32;;;3.50;;
54935;SDS011;40838;50.676;7.838;2023-02-28T05:49:23;7.72;;;3.65;;
54935;SDS011;40838;50.676;7.838;2023-02-28T05:51:50;7.97;;;3.53;;
54935;SDS011;40838;50.676;7.838;2023-02-28T05:54:17;5.03;;;3.17;;
54935;SDS011;40838;50.676;7.838;2023-02-28T05:56:44;6.35;;;3.47;;
54935;SDS011;40838;50.676;7.838;2023-02-28T05:59:10;8.73;;;3.80;;
54935;SDS011;40838;50.676;7.838;2023-02-28T06:01:38;6.88;;;3.78;;
54935;SDS011;40838;50.676;7.838;2023-02-28T06:04:09;5.93;;;3.30;;
54935;SDS011;40838;50.676;7.838;2023-02-28T06:06:40;5.15;;;3.33;;
54935;SDS011;40838;50.676;7.838;2023-02-28T06:09:08;6.15;;;3.15;;
54935;SDS011;40838;50.676;7.838;2023-02-28T06:11:38;4.43;;;2.58;;
54935;SDS011;40838;50.676;7.838;2023-02-28T06:14:05;4.30;;;2.75;;
54935;SDS011;40838;50.676;7.838;2023-02-28T06:16:35;5.93;;;2.88;;
54935;SDS011;40838;50.676;7.838;2023-02-28T06:19:03;5.35;;;3.20;;
54935;SDS011;40838;50.676;7.838;2023-02-28T06:21:30;4.45;;;2.97;;
54935;SDS011;40838;50.676;7.838;2023-02-28T06:23:59;5.15;;;2.80;;
54935;SDS011;40838;50.676;7.838;2023-02-28T06:26:26;4.40;;;2.90;;
54935;SDS011;40838;50.676;7.838;2023-02-28T06:28:53;4.78;;;3.08;;
54935;SDS011;40838;50.676;7.838;2023-02-28T06:31:26;4.07;;;2.60;;
54935;SDS011;40838;50.676;7.838;2023-02-28T06:33:54;4.07;;;2.45;;
54935;SDS011;40838;50.676;7.838;2023-02-28T06:36:21;4.90;;;2.88;;
54935;SDS011;40838;50.676;7.838;2023-02-28T06:38:49;4.43;;;2.85;;
54935;SDS011;40838;50.676;7.838;2023-02-28T06:41:22;4.25;;;2.50;;
54935;SDS011;40838;50.676;7.838;2023-02-28T06:43:49;3.75;;;2.50;;
54935;SDS011;40838;50.676;7.838;2023-02-28T06:46:18;3.55;;;2.17;;
54935;SDS011;40838;50.676;7.838;2023-02-28T06:48:45;3.63;;;2.47;;
54935;SDS011;40838;50.676;7.838;2023-02-28T06:51:13;5.60;;;2.90;;
54935;SDS011;40838;50.676;7.838;2023-02-28T06:53:41;5.32;;;2.15;;
54935;SDS011;40838;50.676;7.838;2023-02-28T06:56:11;4.45;;;2.50;;
54935;SDS011;40838;50.676;7.838;2023-02-28T06:58:41;5.63;;;2.70;;
54935;SDS011;40838;50.676;7.838;2023-02-28T07:01:09;3.92;;;2.17;;
54935;SDS011;40838;50.676;7.838;2023-02-28T07:03:36;7.18;;;2.33;;
54935;SDS011;40838;50.676;7.838;2023-02-28T07:06:04;3.45;;;2.10;;
54935;SDS011;40838;50.676;7.838;2023-02-28T07:08:32;2.53;;;1.90;;
54935;SDS011;40838;50.676;7.838;2023-02-28T07:11:05;3.78;;;2.20;;
54935;SDS011;40838;50.676;7.838;2023-02-28T07:13:35;4.45;;;2.03;;
54935;SDS011;40838;50.676;7.838;2023-02-28T07:16:04;4.13;;;1.90;;
54935;SDS011;40838;50.676;7.838;2023-02-28T07:18:34;2.08;;;1.73;;
54935;SDS011;40838;50.676;7.838;2023-02-28T07:21:02;6.05;;;2.10;;
54935;SDS011;40838;50.676;7.838;2023-02-28T07:23:35;7.73;;;2.00;;
54935;SDS011;40838;50.676;7.838;2023-02-28T07:26:04;7.93;;;2.20;;
54935;SDS011;40838;50.676;7.838;2023-02-28T07:28:31;4.63;;;1.77;;
54935;SDS011;40838;50.676;7.838;2023-02-28T07:31:04;3.15;;;1.88;;
54935;SDS011;40838;50.676;7.838;2023-02-28T07:33:32;2.58;;;1.70;;
54935;SDS011;40838;50.676;7.838;2023-02-28T07:36:00;2.67;;;2.00;;
54935;SDS011;40838;50.676;7.838;2023-02-28T07:38:27;8.15;;;2.10;;
54935;SDS011;40838;50.676;7.838;2023-02-28T07:40:56;2.50;;;1.98;;
54935;SDS011;40838;50.676;7.838;2023-02-28T07:43:23;2.50;;;1.65;;
54935;SDS011;40838;50.676;7.838;2023-02-28T07:45:49;4.75;;;2.00;;
54935;SDS011;40838;50.676;7.838;2023-02-28T07:48:20;3.53;;;1.65;;
54935;SDS011;40838;50.676;7.838;2023-02-28T07:50:54;2.88;;;1.88;;
54935;SDS011;40838;50.676;7.838;2023-02-28T07:55:51;2.42;;;1.80;;
54935;SDS011;40838;50.676;7.838;2023-02-28T07:58:23;4.60;;;1.70;;
54935;SDS011;40838;50.676;7.838;2023-02-28T08:00:50;3.55;;;1.85;;
54935;SDS011;40838;50.676;7.838;2023-02-28T08:03:18;3.88;;;1.48;;
54935;SDS011;40838;50.676;7.838;2023-02-28T08:05:47;2.40;;;1.42;;
54935;SDS011;40838;50.676;7.838;2023-02-28T08:08:17;4.38;;;2.08;;
54935;SDS011;40838;50.676;7.838;2023-02-28T08:10:44;2.35;;;1.50;;
54935;SDS011;40838;50.676;7.838;2023-02-28T08:13:12;3.78;;;1.35;;
54935;SDS011;40838;50.676;7.838;2023-02-28T08:15:40;2.63;;;1.35;;
54935;SDS011;40838;50.676;7.838;2023-02-28T08:18:08;2.90;;;1.83;;
54935;SDS011;40838;50.676;7.838;2023-02-28T08:20:38;3.58;;;1.60;;
54935;SDS011;40838;50.676;7.838;2023-02-28T08:23:06;2.55;;;1.60;;
54935;SDS011;40838;50.676;7.838;2023-02-28T08:25:32;2.97;;;1.50;;
54935;SDS011;40838;50.676;7.838;2023-02-28T08:28:01;2.05;;;1.50;;
54935;SDS011;40838;50.676;7.838;2023-02-28T08:30:28;3.63;;;1.70;;
54935;SDS011;40838;50.676;7.838;2023-02-28T08:32:55;2.83;;;1.80;;
54935;SDS011;40838;50.676;7.838;2023-02-28T08:35:22;3.35;;;1.70;;
54935;SDS011;40838;50.676;7.838;2023-02-28T08:37:50;2.72;;;1.75;;
54935;SDS011;40838;50.676;7.838;2023-02-28T08:40:17;2.67;;;1.65;;
54935;SDS011;40838;50.676;7.838;2023-02-28T08:42:44;5.35;;;1.50;;
54935;SDS011;40838;50.676;7.838;2023-02-28T08:45:11;4.22;;;2.25;;
54935;SDS011;40838;50.676;7.838;2023-02-28T08:47:40;3.28;;;1.60;;
54935;SDS011;40838;50.676;7.838;2023-02-28T08:50:08;3.15;;;1.73;;
54935;SDS011;40838;50.676;7.838;2023-02-28T08:52:36;1.80;;;1.35;;
54935;SDS011;40838;50.676;7.838;2023-02-28T08:55:08;1.98;;;1.35;;
54935;SDS011;40838;50.676;7.838;2023-02-28T08:57:37;2.97;;;1.35;;
54935;SDS011;40838;50.676;7.838;2023-02-28T09:00:04;3.85;;;1.55;;
54935;SDS011;40838;50.676;7.838;2023-02-28T09:02:37;4.55;;;2.35;;
54935;SDS011;40838;50.676;7.838;2023-02-28T09:05:05;2.92;;;1.73;;
54935;SDS011;40838;50.676;7.838;2023-02-28T09:07:33;3.30;;;1.30;;
54935;SDS011;40838;50.676;7.838;2023-02-28T09:10:00;3.08;;;1.50;;
54935;SDS011;40838;50.676;7.838;2023-02-28T09:12:28;2.97;;;1.40;;
54935;SDS011;40838;50.676;7.838;2023-02-28T09:15:02;1.98;;;1.20;;
54935;SDS011;40838;50.676;7.838;2023-02-28T09:17:29;3.25;;;1.40;;
54935;SDS011;40838;50.676;7.838;2023-02-28T09:19:56;2.63;;;1.35;;
54935;SDS011;40838;50.676;7.838;2023-02-28T09:22:23;3.47;;;1.27;;
54935;SDS011;40838;50.676;7.838;2023-02-28T09:24:50;6.30;;;2.03;;
54935;SDS011;40838;50.676;7.838;2023-02-28T09:27:19;3.63;;;1.92;;
54935;SDS011;40838;50.676;7.838;2023-02-28T09:29:54;2.40;;;1.50;;
54935;SDS011;40838;50.676;7.838;2023-02-28T09:32:21;1.95;;;1.33;;
54935;SDS011;40838;50.676;7.838;2023-02-28T09:34:48;3.30;;;1.60;;
54935;SDS011;40838;50.676;7.838;2023-02-28T09:37:15;1.90;;;1.30;;
54935;SDS011;40838;50.676;7.838;2023-02-28T09:39:42;3.00;;;1.35;;
54935;SDS011;40838;50.676;7.838;2023-02-28T09:42:12;3.22;;;1.45;;
54935;SDS011;40838;50.676;7.838;2023-02-28T09:44:47;1.25;;;1.15;;
54935;SDS011;40838;50.676;7.838;2023-02-28T09:47:25;3.35;;;1.38;;
54935;SDS011;40838;50.676;7.838;2023-02-28T09:49:58;1.98;;;1.50;;
54935;SDS011;40838;50.676;7.838;2023-02-28T09:52:31;3.53;;;1.42;;
54935;SDS011;40838;50.676;7.838;2023-02-28T09:55:00;1.60;;;1.10;;
54935;SDS011;40838;50.676;7.838;2023-02-28T09:57:44;1.52;;;1.13;;
54935;SDS011;40838;50.676;7.838;2023-02-28T10:00:13;2.38;;;1.23;;
54935;SDS011;40838;50.676;7.838;2023-02-28T10:02:55;2.47;;;1.50;;
54935;SDS011;40838;50.676;7.838;2023-02-28T10:05:38;3.33;;;1.27;;
54935;SDS011;40838;50.676;7.838;2023-02-28T10:08:11;4.75;;;1.70;;
54935;SDS011;40838;50.676;7.838;2023-02-28T10:10:44;3.53;;;2.10;;
54935;SDS011;40838;50.676;7.838;2023-02-28T10:13:15;2.33;;;1.30;;
54935;SDS011;40838;50.676;7.838;2023-02-28T10:15:51;3.13;;;1.80;;
54935;SDS011;40838;50.676;7.838;2023-02-28T10:18:24;2.33;;;1.92;;
54935;SDS011;40838;50.676;7.838;2023-02-28T10:20:55;3.58;;;1.52;;
54935;SDS011;40838;50.676;7.838;2023-02-28T10:23:26;2.90;;;1.55;;
54935;SDS011;40838;50.676;7.838;2023-02-28T10:26:00;2.30;;;1.47;;
54935;SDS011;40838;50.676;7.838;2023-02-28T10:28:31;1.63;;;1.35;;
54935;SDS011;40838;50.676;7.838;2023-02-28T10:30:58;2.60;;;1.50;;
54935;SDS011;40838;50.676;7.838;2023-02-28T10:33:28;2.92;;;2.10;;
54935;SDS011;40838;50.676;7.838;2023-02-28T10:35:56;3.55;;;1.60;;
54935;SDS011;40838;50.676;7.838;2023-02-28T10:38:24;5.57;;;2.42;;
54935;SDS011;40838;50.676;7.838;2023-02-28T10:41:00;1.63;;;1.50;;
54935;SDS011;40838;50.676;7.838;2023-02-28T10:43:33;2.05;;;1.38;;
54935;SDS011;40838;50.676;7.838;2023-02-28T10:46:01;5.43;;;2.13;;
54935;SDS011;40838;50.676;7.838;2023-02-28T10:48:36;3.65;;;2.10;;
54935;SDS011;40838;50.676;7.838;2023-02-28T10:51:04;3.17;;;1.90;;
54935;SDS011;40838;50.676;7.838;2023-02-28T10:53:35;2.47;;;1.40;;
54935;SDS011;40838;50.676;7.838;2023-02-28T10:56:06;3.85;;;1.80;;
54935;SDS011;40838;50.676;7.838;2023-02-28T10:58:46;2.72;;;1.98;;
54935;SDS011;40838;50.676;7.838;2023-02-28T11:01:16;3.93;;;1.83;;
54935;SDS011;40838;50.676;7.838;2023-02-28T11:03:45;2.13;;;1.55;;
54935;SDS011;40838;50.676;7.838;2023-02-28T11:06:17;3.08;;;1.60;;
54935;SDS011;40838;50.676;7.838;2023-02-28T11:08:47;3.15;;;1.90;;
54935;SDS011;40838;50.676;7.838;2023-02-28T11:11:16;2.53;;;2.05;;
54935;SDS011;40838;50.676;7.838;2023-02-28T11:13:45;3.92;;;1.92;;
54935;SDS011;40838;50.676;7.838;2023-02-28T11:16:17;2.25;;;1.45;;
54935;SDS011;40838;50.676;7.838;2023-02-28T11:18:48;2.22;;;1.52;;
54935;SDS011;40838;50.676;7.838;2023-02-28T11:21:18;2.42;;;1.80;;
54935;SDS011;40838;50.676;7.838;2023-02-28T11:23:49;2.65;;;1.90;;
54935;SDS011;40838;50.676;7.838;2023-02-28T11:26:37;5.57;;;1.73;;
54935;SDS011;40838;50.676;7.838;2023-02-28T11:29:09;3.05;;;1.80;;
54935;SDS011;40838;50.676;7.838;2023-02-28T11:31:38;3.70;;;1.88;;
54935;SDS011;40838;50.676;7.838;2023-02-28T11:37:08;2.05;;;1.80;;
54935;SDS011;40838;50.676;7.838;2023-02-28T11:42:08;3.00;;;2.15;;
54935;SDS011;40838;50.676;7.838;2023-02-28T11:44:51;2.15;;;1.70;;
54935;SDS011;40838;50.676;7.838;2023-02-28T11:47:30;3.90;;;2.00;;
54935;SDS011;40838;50.676;7.838;2023-02-28T11:50:10;4.47;;;2.22;;
54935;SDS011;40838;50.676;7.838;2023-02-28T11:52:51;4.72;;;2.40;;
54935;SDS011;40838;50.676;7.838;2023-02-28T11:55:24;2.03;;;1.73;;
54935;SDS011;40838;50.676;7.838;2023-02-28T11:57:56;4.10;;;2.20;;
54935;SDS011;40838;50.676;7.838;2023-02-28T12:00:57;6.00;;;2.42;;
54935;SDS011;40838;50.676;7.838;2023-02-28T12:03:43;3.28;;;2.25;;
54935;SDS011;40838;50.676;7.838;2023-02-28T12:06:21;3.97;;;2.60;;
54935;SDS011;40838;50.676;7.838;2023-02-28T12:08:56;2.90;;;2.35;;
54935;SDS011;40838;50.676;7.838;2023-02-28T12:11:36;3.40;;;2.42;;
54935;SDS011;40838;50.676;7.838;2023-02-28T12:14:25;4.38;;;2.22;;
54935;SDS011;40838;50.676;7.838;2023-02-28T12:17:25;3.83;;;2.25;;
54935;SDS011;40838;50.676;7.838;2023-02-28T12:20:05;3.58;;;2.15;;
54935;SDS011;40838;50.676;7.838;2023-02-28T12:22:47;2.72;;;2.10;;
54935;SDS011;40838;50.676;7.838;2023-02-28T12:25:44;3.13;;;2.20;;
54935;SDS011;40838;50.676;7.838;2023-02-28T12:28:20;2.65;;;2.25;;
54935;SDS011;40838;50.676;7.838;2023-02-28T12:30:53;3.37;;;2.53;;
54935;SDS011;40838;50.676;7.838;2023-02-28T12:33:31;6.55;;;2.83;;
54935;SDS011;40838;50.676;7.838;2023-02-28T12:36:02;10.07;;;2.53;;
54935;SDS011;40838;50.676;7.838;2023-02-28T12:38:36;3.60;;;2.50;;
54935;SDS011;40838;50.676;7.838;2023-02-28T12:41:08;2.88;;;2.20;;
54935;SDS011;40838;50.676;7.838;2023-02-28T12:43:40;3.80;;;2.55;;
54935;SDS011;40838;50.676;7.838;2023-02-28T12:46:12;4.85;;;2.15;;
54935;SDS011;40838;50.676;7.838;2023-02-28T12:48:46;6.65;;;2.80;;
54935;SDS011;40838;50.676;7.838;2023-02-28T12:51:19;17.88;;;3.25;;
54935;SDS011;40838;50.676;7.838;2023-02-28T12:53:58;4.55;;;2.33;;
54935;SDS011;40838;50.676;7.838;2023-02-28T12:56:37;3.08;;;2.17;;
54935;SDS011;40838;50.676;7.838;2023-02-28T12:59:13;6.90;;;3.25;;
54935;SDS011;40838;50.676;7.838;2023-02-28T13:01:57;5.82;;;3.00;;
54935;SDS011;40838;50.676;7.838;2023-02-28T13:10:18;3.45;;;2.38;;
54935;SDS011;40838;50.676;7.838;2023-02-28T13:12:50;4.68;;;3.38;;
54935;SDS011;40838;50.676;7.838;2023-02-28T13:15:26;5.43;;;3.40;;
54935;SDS011;40838;50.676;7.838;2023-02-28T13:17:55;8.27;;;3.22;;
54935;SDS011;40838;50.676;7.838;2023-02-28T13:20:25;4.32;;;2.85;;
54935;SDS011;40838;50.676;7.838;2023-02-28T13:22:54;5.97;;;3.50;;
54935;SDS011;40838;50.676;7.838;2023-02-28T13:31:26;8.65;;;3.15;;
54935;SDS011;40838;50.676;7.838;2023-02-28T13:36:40;3.90;;;3.08;;
54935;SDS011;40838;50.676;7.838;2023-02-28T13:45:20;7.43;;;3.42;;
54935;SDS011;40838;50.676;7.838;2023-02-28T13:47:53;7.63;;;3.03;;
54935;SDS011;40838;50.676;7.838;2023-02-28T13:50:23;3.80;;;3.05;;
54935;SDS011;40838;50.676;7.838;2023-02-28T13:52:58;4.22;;;3.05;;
54935;SDS011;40838;50.676;7.838;2023-02-28T13:56:04;6.47;;;3.50;;
54935;SDS011;40838;50.676;7.838;2023-02-28T13:58:51;4.50;;;3.28;;
54935;SDS011;40838;50.676;7.838;2023-02-28T14:01:30;6.25;;;3.40;;
54935;SDS011;40838;50.676;7.838;2023-02-28T14:07:10;7.28;;;3.60;;
54935;SDS011;40838;50.676;7.838;2023-02-28T14:09:59;5.72;;;3.17;;
54935;SDS011;40838;50.676;7.838;2023-02-28T14:15:34;6.67;;;3.83;;
54935;SDS011;40838;50.676;7.838;2023-02-28T14:18:13;4.22;;;3.15;;
54935;SDS011;40838;50.676;7.838;2023-02-28T14:20:44;5.80;;;3.40;;
54935;SDS011;40838;50.676;7.838;2023-02-28T14:23:19;4.78;;;3.45;;
54935;SDS011;40838;50.676;7.838;2023-02-28T14:25:59;5.25;;;3.60;;
54935;SDS011;40838;50.676;7.838;2023-02-28T14:31:10;6.18;;;3.40;;
54935;SDS011;40838;50.676;7.838;2023-02-28T14:33:44;6.25;;;3.67;;
54935;SDS011;40838;50.676;7.838;2023-02-28T14:36:31;7.70;;;4.38;;
54935;SDS011;40838;50.676;7.838;2023-02-28T14:39:01;4.57;;;3.40;;
54935;SDS011;40838;50.676;7.838;2023-02-28T14:41:33;5.18;;;3.25;;
54935;SDS011;40838;50.676;7.838;2023-02-28T14:44:02;4.28;;;3.33;;
54935;SDS011;40838;50.676;7.838;2023-02-28T14:46:40;8.00;;;3.70;;
54935;SDS011;40838;50.676;7.838;2023-02-28T14:49:12;5.30;;;3.05;;
54935;SDS011;40838;50.676;7.838;2023-02-28T14:51:42;5.53;;;3.10;;
54935;SDS011;40838;50.676;7.838;2023-02-28T14:54:13;5.38;;;3.40;;
54935;SDS011;40838;50.676;7.838;2023-02-28T14:56:42;9.20;;;4.43;;
54935;SDS011;40838;50.676;7.838;2023-02-28T14:59:23;6.35;;;3.30;;
54935;SDS011;40838;50.676;7.838;2023-02-28T15:04:52;5.70;;;3.33;;
54935;SDS011;40838;50.676;7.838;2023-02-28T15:07:20;9.30;;;2.83;;
54935;SDS011;40838;50.676;7.838;2023-02-28T15:10:07;5.10;;;3.45;;
54935;SDS011;40838;50.676;7.838;2023-02-28T15:12:36;4.88;;;3.25;;
54935;SDS011;40838;50.676;7.838;2023-02-28T15:15:03;5.15;;;3.10;;
54935;SDS011;40838;50.676;7.838;2023-02-28T15:17:33;10.57;;;3.47;;
54935;SDS011;40838;50.676;7.838;2023-02-28T15:20:01;4.55;;;3.10;;
54935;SDS011;40838;50.676;7.838;2023-02-28T15:22:29;7.15;;;3.63;;
54935;SDS011;40838;50.676;7.838;2023-02-28T15:25:04;5.22;;;3.25;;
54935;SDS011;40838;50.676;7.838;2023-02-28T15:27:42;5.07;;;3.20;;
54935;SDS011;40838;50.676;7.838;2023-02-28T15:30:14;5.53;;;3.30;;
54935;SDS011;40838;50.676;7.838;2023-02-28T15:32:46;5.40;;;3.35;;
54935;SDS011;40838;50.676;7.838;2023-02-28T15:35:31;7.43;;;3.38;;
54935;SDS011;40838;50.676;7.838;2023-02-28T15:38:01;6.45;;;3.50;;
54935;SDS011;40838;50.676;7.838;2023-02-28T15:40:31;5.85;;;3.33;;
54935;SDS011;40838;50.676;7.838;2023-02-28T15:43:02;5.18;;;3.60;;
54935;SDS011;40838;50.676;7.838;2023-02-28T15:45:33;5.40;;;3.35;;
54935;SDS011;40838;50.676;7.838;2023-02-28T15:48:13;5.57;;;3.35;;
54935;SDS011;40838;50.676;7.838;2023-02-28T15:50:43;5.28;;;3.20;;
54935;SDS011;40838;50.676;7.838;2023-02-28T15:53:12;4.68;;;3.20;;
54935;SDS011;40838;50.676;7.838;2023-02-28T15:55:41;7.60;;;2.80;;
54935;SDS011;40838;50.676;7.838;2023-02-28T15:58:10;5.60;;;2.92;;
54935;SDS011;40838;50.676;7.838;2023-02-28T16:00:39;6.15;;;3.20;;
54935;SDS011;40838;50.676;7.838;2023-02-28T16:03:22;4.72;;;3.22;;
54935;SDS011;40838;50.676;7.838;2023-02-28T16:09:06;6.15;;;3.58;;
54935;SDS011;40838;50.676;7.838;2023-02-28T16:11:38;7.38;;;3.38;;
54935;SDS011;40838;50.676;7.838;2023-02-28T16:14:13;5.28;;;3.38;;